Rainbow, Texas
Current Conditions -  °F | °C
As of 8:55 PM on Friday 19 Dec 2014 (Local Time) from KGDJ Reporting Station
Overcast Overcast  
Wind Chill: 49°   Ceiling: 1700
Heat Index: 49°   Visibility: 10mi
Dew Point: 45°   Wind: 0mph
Humidity: 86%   Direction: NA
Pressure: 30.22"   Gusts: NA
Location:  32.27°N, 97.7°W
Report Text: KGDJ 200255Z AUTO 00000KT 10SM OVC017 09/07 A3022 RMK AO2 T00920070
Loading
Personal Weather Stations






























Interactive Weather Map New forecast layout! Learn more

10-Day Weather Forecast

Advertisements
Track Severe Weather on mobile